Time;durP1;ratioP1;P1;durP2;ratioP2;P2;SDS_P1;SDS_P2;PMS_P1;PMS_P2;Temp;Humidity;BMP_temperature;BMP_pressure;BME280_temperature;BME280_humidity;BME280_pressure;Samples;Min_cycle;Max_cycle;Signal;HPM_P1;HPM_P2
2023/10/09 00:01:14;;;;;;;23.10;9.10;;;;;;;14.19;100.00;102115.00;5257690;28;20485;-71
2023/10/09 00:03:44;;;;;;;20.65;9.07;;;;;;;14.15;100.00;102106.38;5250618;28;20043;-71
2023/10/09 00:06:15;;;;;;;16.98;7.03;;;;;;;14.09;100.00;102104.31;5259180;28;20028;-71
2023/10/09 00:08:50;;;;;;;8.57;5.70;;;;;;;14.03;100.00;102107.66;5260723;28;20077;-72
2023/10/09 00:11:20;;;;;;;;;;;;;;;14.01;100.00;102101.59;5257820;28;20077;-71
2023/10/09 00:13:52;;;;;;;16.30;8.25;;;;;;;14.02;100.00;102105.97;5256539;28;19908;-72
2023/10/09 00:16:34;;;;;;;19.25;9.55;;;;;;;14.07;100.00;102100.94;5252872;28;20035;-70
2023/10/09 00:19:14;;;;;;;15.52;8.85;;;;;;;14.06;100.00;102110.03;5246266;28;20028;-70
2023/10/09 00:21:46;;;;;;;18.63;9.45;;;;;;;14.14;100.00;102128.97;5256846;28;20073;-70
2023/10/09 00:24:23;;;;;;;27.02;9.88;;;;;;;14.23;100.00;102127.19;5256715;28;20111;-69
2023/10/09 00:27:01;;;;;;;23.13;9.13;;;;;;;14.25;100.00;102127.84;5252936;28;20028;-70
2023/10/09 00:29:34;;;;;;;21.48;9.00;;;;;;;14.26;100.00;102118.78;5256146;28;20107;-70
2023/10/09 00:32:26;;;;;;;21.10;9.68;;;;;;;14.22;100.00;102120.09;5247076;28;20536;-70
2023/10/09 00:34:59;;;;;;;24.55;9.52;;;;;;;14.21;100.00;102113.00;5247618;28;20501;-71
2023/10/09 00:37:33;;;;;;;17.08;8.20;;;;;;;14.27;100.00;102114.22;5252373;28;20039;-71
2023/10/09 00:40:19;;;;;;;19.88;9.27;;;;;;;14.30;100.00;102117.44;5248211;28;20028;-71
2023/10/09 00:42:52;;;;;;;24.17;9.88;;;;;;;14.39;100.00;102121.03;5260986;28;20039;-71
2023/10/09 00:45:32;;;;;;;17.35;9.55;;;;;;;14.48;100.00;102112.00;5256134;28;20098;-70
2023/10/09 00:48:04;;;;;;;23.63;9.43;;;;;;;14.57;100.00;102115.59;5262933;28;20069;-71
2023/10/09 00:50:36;;;;;;;18.83;9.00;;;;;;;14.60;100.00;102115.25;5251222;28;20106;-71
2023/10/09 00:53:12;;;;;;;22.85;9.10;;;;;;;14.62;100.00;102106.00;5257320;28;20441;-70
2023/10/09 00:58:15;;;;;;;16.55;8.52;;;;;;;14.62;100.00;102111.41;5254172;28;20024;-70
2023/10/09 01:00:45;;;;;;;20.60;9.50;;;;;;;14.55;100.00;102104.94;5259888;28;20023;-71
2023/10/09 01:05:57;;;;;;;17.80;9.00;;;;;;;14.59;100.00;102103.59;5256808;28;20020;-70
2023/10/09 01:11:09;;;;;;;21.38;9.63;;;;;;;14.70;100.00;102087.09;5256879;28;20024;-71
2023/10/09 01:16:22;;;;;;;19.08;8.73;;;;;;;14.72;100.00;102076.16;5259321;28;20027;-70
2023/10/09 01:18:56;;;;;;;23.10;9.60;;;;;;;14.67;100.00;102078.50;5255751;28;20021;-70
2023/10/09 01:21:27;;;;;;;24.00;10.43;;;;;;;14.70;100.00;102080.84;5258206;28;20025;-71
2023/10/09 01:24:08;;;;;;;21.45;9.98;;;;;;;14.74;100.00;102077.66;5255993;28;20056;-71
2023/10/09 01:26:40;;;;;;;17.65;9.57;;;;;;;14.77;100.00;102071.13;5255262;28;20020;-71
2023/10/09 01:29:19;;;;;;;24.85;11.10;;;;;;;14.81;100.00;102072.47;5260484;28;20042;-71
2023/10/09 01:31:55;;;;;;;20.85;10.02;;;;;;;14.81;100.00;102069.78;5253899;28;20052;-71
2023/10/09 01:34:41;;;;;;;19.27;9.38;;;;;;;14.91;100.00;102066.91;5257750;28;20020;-70
2023/10/09 01:37:18;;;;;;;19.55;9.52;;;;;;;14.94;100.00;102055.78;5252024;28;20047;-70
2023/10/09 01:39:50;;;;;;;20.40;9.73;;;;;;;15.00;100.00;102055.94;5252989;28;20024;-71
2023/10/09 01:45:11;;;;;;;21.42;9.63;;;;;;;15.16;100.00;102078.59;5256676;28;20039;-71
2023/10/09 01:47:52;;;;;;;27.75;9.85;;;;;;;15.26;100.00;102085.59;5251007;28;20043;-72
2023/10/09 01:50:30;;;;;;;20.77;9.02;;;;;;;15.37;100.00;102080.84;5255772;28;20492;-71
2023/10/09 01:53:02;;;;;;;22.27;9.15;;;;;;;15.43;100.00;102082.88;5260036;28;20035;-71
2023/10/09 01:58:07;;;;;;;21.00;8.75;;;;;;;15.46;100.00;102085.22;5249683;28;20031;-72
2023/10/09 02:00:43;;;;;;;24.15;10.20;;;;;;;15.45;100.00;102078.16;5256563;28;20040;-71
2023/10/09 02:03:15;;;;;;;19.90;8.60;;;;;;;15.49;100.00;102076.78;5256361;28;20055;-71
2023/10/09 02:05:46;;;;;;;18.02;8.60;;;;;;;15.53;100.00;102086.28;5257476;28;20082;-71
2023/10/09 02:08:21;;;;;;;24.23;8.45;;;;;;;15.54;100.00;102083.38;5256217;28;20055;-71
2023/10/09 02:10:55;;;;;;;21.80;9.55;;;;;;;15.53;100.00;102062.78;5257905;28;20498;-70
2023/10/09 02:13:29;;;;;;;21.55;8.85;;;;;;;15.51;100.00;102058.53;5251050;28;20077;-71
2023/10/09 02:16:14;;;;;;;18.60;8.23;;;;;;;15.49;100.00;102063.28;5252434;28;20012;-71
2023/10/09 02:18:52;;;;;;;22.70;8.93;;;;;;;15.50;100.00;102062.25;5257929;28;20107;-72
2023/10/09 02:21:33;;;;;;;21.48;8.32;;;;;;;15.50;100.00;102056.84;5257939;28;20024;-71
2023/10/09 02:24:07;;;;;;;13.85;8.02;;;;;;;15.45;100.00;102054.66;5245105;28;20031;-72
2023/10/09 02:31:47;;;;;;;18.25;8.85;;;;;;;15.43;100.00;102066.66;5246357;28;20160;-71
2023/10/09 02:34:22;;;;;;;20.33;8.63;;;;;;;15.42;100.00;102076.63;5256282;28;20034;-72
2023/10/09 02:37:05;;;;;;;16.73;7.97;;;;;;;15.42;100.00;102059.56;5252132;28;20031;-71
2023/10/09 02:39:37;;;;;;;20.40;8.77;;;;;;;15.47;100.00;102065.31;5252007;28;20032;-71
2023/10/09 02:42:23;;;;;;;18.55;8.70;;;;;;;15.46;100.00;102055.50;5247428;28;20097;-71
2023/10/09 02:44:54;;;;;;;20.75;8.43;;;;;;;15.43;100.00;102043.16;5253199;28;20028;-72
2023/10/09 02:47:29;;;;;;;19.50;9.55;;;;;;;15.44;100.00;102041.31;5251049;28;20032;-71
2023/10/09 02:50:07;;;;;;;16.10;8.40;;;;;;;15.47;100.00;102040.97;5256254;28;20031;-72
2023/10/09 02:52:40;;;;;;;14.95;7.97;;;;;;;15.48;100.00;102048.91;5252987;28;20037;-71
2023/10/09 02:55:23;;;;;;;23.98;7.90;;;;;;;15.50;100.00;102038.75;5258695;28;20384;-71
2023/10/09 02:58:06;;;;;;;20.58;8.75;;;;;;;15.57;100.00;102047.06;5249940;28;20040;-71
2023/10/09 03:00:37;;;;;;;18.45;8.48;;;;;;;15.64;100.00;102056.19;5254540;28;20067;-71
2023/10/09 03:03:08;;;;;;;17.50;8.18;;;;;;;15.64;100.00;102042.69;5250835;28;20024;-71
2023/10/09 03:05:42;;;;;;;22.08;8.32;;;;;;;15.61;100.00;102044.84;5248912;28;20043;-71
2023/10/09 03:08:12;;;;;;;16.55;7.40;;;;;;;15.65;100.00;102046.22;5253637;28;20016;-71
2023/10/09 03:10:43;;;;;;;17.70;8.27;;;;;;;15.69;100.00;102040.31;5252662;28;20020;-71
2023/10/09 03:13:19;;;;;;;18.63;8.35;;;;;;;15.73;100.00;102057.03;5256354;28;20024;-71
2023/10/09 03:15:51;;;;;;;17.65;9.07;;;;;;;15.76;100.00;102051.28;5254767;28;20015;-71
2023/10/09 03:18:22;;;;;;;18.63;8.98;;;;;;;15.78;100.00;102063.63;5252213;28;20024;-71
2023/10/09 03:20:52;;;;;;;22.63;8.15;;;;;;;15.80;100.00;102060.75;5258045;28;20570;-71
2023/10/09 03:23:23;;;;;;;17.83;9.10;;;;;;;15.81;100.00;102051.59;5250186;28;20124;-71
2023/10/09 03:25:53;;;;;;;17.90;8.75;;;;;;;15.79;100.00;102049.09;5254099;28;20032;-71
2023/10/09 03:28:24;;;;;;;23.75;8.63;;;;;;;15.78;100.00;102051.97;5251196;28;20028;-71
2023/10/09 03:30:54;;;;;;;19.60;9.07;;;;;;;15.80;100.00;102052.63;5258348;28;20028;-71
2023/10/09 03:33:25;;;;;;;18.25;8.88;;;;;;;15.79;100.00;102045.53;5247878;28;20074;-71
2023/10/09 03:35:55;;;;;;;20.08;9.05;;;;;;;15.75;100.00;102033.38;5255056;28;20031;-71
2023/10/09 03:38:34;;;;;;;19.88;9.15;;;;;;;15.71;100.00;102024.75;5252145;28;20251;-71
2023/10/09 03:41:06;;;;;;;17.77;8.48;;;;;;;15.71;100.00;102032.88;5247445;28;20493;-72
2023/10/09 03:43:39;;;;;;;20.80;9.10;;;;;;;15.68;100.00;102024.25;5250419;28;20036;-71
2023/10/09 03:46:27;;;;;;;21.75;10.07;;;;;;;15.66;100.00;102035.25;5254864;28;20020;-71
2023/10/09 03:49:00;;;;;;;18.67;8.68;;;;;;;15.65;100.00;102033.53;5253969;28;20439;-71
2023/10/09 03:51:32;;;;;;;16.60;8.27;;;;;;;15.66;100.00;102029.84;5250875;28;20020;-71
2023/10/09 03:54:07;;;;;;;26.63;10.05;;;;;;;15.68;100.00;102033.22;5251862;28;20116;-71
2023/10/09 03:56:38;;;;;;;17.92;8.45;;;;;;;15.69;100.00;102034.91;5252793;28;20024;-71
2023/10/09 03:59:10;;;;;;;22.98;10.20;;;;;;;15.68;100.00;102032.38;5253261;28;20028;-71
2023/10/09 04:01:41;;;;;;;21.83;9.25;;;;;;;15.69;100.00;102029.47;5254526;28;20453;-71
2023/10/09 04:04:14;;;;;;;26.48;10.15;;;;;;;15.71;100.00;102041.00;5251050;28;20119;-71
2023/10/09 04:06:46;;;;;;;20.05;9.05;;;;;;;15.74;100.00;102037.94;5253583;28;20078;-71
2023/10/09 04:14:50;;;;;;;21.80;8.88;;;;;;;15.69;100.00;102034.06;5247361;28;20389;-71
2023/10/09 04:17:34;;;;;;;23.08;10.50;;;;;;;15.73;100.00;102035.41;5256068;28;20020;-71
2023/10/09 04:20:51;;;;;;;23.42;9.88;;;;;;;15.74;100.00;102032.53;5252578;28;20024;-71
2023/10/09 04:23:05;;;;;;;22.45;9.52;;;;;;;15.78;100.00;102038.44;5256608;28;20020;-71
2023/10/09 04:25:42;;;;;;;19.88;10.27;;;;;;;15.79;100.00;102035.56;5257244;28;20540;-72
2023/10/09 04:30:55;;;;;;;27.15;10.85;;;;;;;15.78;100.00;102028.47;5259854;28;20366;-72
2023/10/09 04:36:28;;;;;;;23.50;9.75;;;;;;;15.80;100.00;102017.44;5256962;28;20033;-72
2023/10/09 04:39:15;;;;;;;22.98;10.25;;;;;;;15.86;100.00;102022.16;5258791;28;20090;-71
2023/10/09 04:44:29;;;;;;;27.08;10.05;;;;;;;15.88;100.00;102030.97;5256994;28;20099;-71
2023/10/09 04:50:01;;;;;;;21.40;10.48;;;;;;;15.92;100.00;102047.72;5249965;28;20486;-71
2023/10/09 05:00:35;;;;;;;23.08;10.95;;;;;;;15.89;100.00;102031.81;5256648;28;20027;-71
2023/10/09 05:03:09;;;;;;;23.63;11.27;;;;;;;15.85;100.00;102038.59;5246873;28;20508;-71
2023/10/09 05:08:21;;;;;;;22.23;11.10;;;;;;;15.75;100.00;102025.25;5254709;28;20032;-71
2023/10/09 05:16:19;;;;;;;23.67;10.35;;;;;;;15.67;100.00;102017.16;5248819;28;20456;-70
2023/10/09 05:18:56;;;;;;;24.83;10.48;;;;;;;15.66;100.00;102026.25;5247727;28;20077;-70
2023/10/09 05:37:32;;;;;;;29.90;14.25;;;;;;;15.50;100.00;102032.50;5249532;28;20386;-69
2023/10/09 05:42:57;;;;;;;23.00;10.60;;;;;;;15.49;100.00;102031.66;5249887;28;20111;-70
2023/10/09 05:46:09;;;;;;;27.27;12.23;;;;;;;15.52;100.00;102035.91;5252285;28;20051;-70
2023/10/09 06:04:25;;;;;;;31.05;13.35;;;;;;;15.71;100.00;102075.28;5250215;28;20095;-70
2023/10/09 06:06:56;;;;;;;33.22;14.70;;;;;;;15.71;100.00;102073.47;5252068;28;20032;-70
2023/10/09 06:15:19;;;;;;;36.22;16.90;;;;;;;15.74;100.00;102046.03;5250921;28;20024;-70
2023/10/09 06:17:50;;;;;;;39.50;15.02;;;;;;;15.80;100.00;102050.75;5251513;28;20032;-70
2023/10/09 06:20:50;;;;;;;35.63;16.30;;;;;;;15.83;100.00;102043.34;5246963;28;20023;-70
2023/10/09 06:23:23;;;;;;;35.85;15.30;;;;;;;15.91;100.00;102051.41;5245724;28;20028;-70
2023/10/09 06:26:05;;;;;;;35.90;15.73;;;;;;;15.92;100.00;102058.56;5251841;28;20025;-70
2023/10/09 06:28:36;;;;;;;35.75;15.50;;;;;;;15.95;100.00;102074.44;5243098;28;20032;-70
2023/10/09 06:31:46;;;;;;;40.00;15.27;;;;;;;15.99;100.00;102086.59;5252057;28;20022;-70
2023/10/09 06:34:15;;;;;;;39.45;15.50;;;;;;;16.03;100.00;102077.97;5254226;28;20024;-69
2023/10/09 06:36:52;;;;;;;;;;;;;;;16.05;100.00;102066.97;5246185;28;20107;-69
2023/10/09 06:42:43;;;;;;;35.95;16.00;;;;;;;16.08;100.00;102072.03;5245014;28;20032;-70
2023/10/09 06:47:55;;;;;;;33.63;15.23;;;;;;;16.02;100.00;102064.63;5251233;28;20057;-70
2023/10/09 06:50:26;;;;;;;38.78;15.63;;;;;;;16.03;100.00;102069.84;5246768;28;20036;-70
2023/10/09 06:55:48;;;;;;;35.60;16.90;;;;;;;16.16;100.00;102079.28;5243174;28;20066;-70
2023/10/09 06:58:26;;;;;;;35.42;15.80;;;;;;;16.18;100.00;102074.56;5247432;28;20016;-70
2023/10/09 07:03:29;;;;;;;32.88;16.55;;;;;;;16.25;100.00;102073.66;5246890;28;20081;-70
2023/10/09 07:06:09;;;;;;;33.63;15.75;;;;;;;16.31;100.00;102067.59;5252421;28;20020;-70
2023/10/09 07:08:57;;;;;;;31.05;15.80;;;;;;;16.39;100.00;102079.41;5248830;28;20024;-70
2023/10/09 07:17:04;;;;;;;33.17;16.15;;;;;;;16.44;100.00;102060.75;5249037;28;20020;-70
2023/10/09 07:22:16;;;;;;;35.67;16.90;;;;;;;16.52;100.00;102064.28;5245566;28;20017;-70
2023/10/09 07:24:57;;;;;;;30.73;15.38;;;;;;;16.58;100.00;102073.56;5245270;28;20377;-70
2023/10/09 07:27:43;;;;;;;34.30;16.23;;;;;;;16.64;100.00;102078.28;5249600;28;20409;-70
2023/10/09 07:38:19;;;;;;;29.70;14.32;;;;;;;17.15;100.00;102069.72;5245307;28;20028;-71
2023/10/09 07:43:39;;;;;;;31.58;15.18;;;;;;;17.47;100.00;102074.03;5250032;28;20020;-70
2023/10/09 07:46:32;;;;;;;29.70;14.57;;;;;;;17.64;100.00;102070.19;5244486;28;20424;-70
2023/10/09 07:49:12;;;;;;;30.17;14.93;;;;;;;18.03;100.00;102090.91;5245255;28;20027;-70
2023/10/09 07:51:43;;;;;;;29.98;13.93;;;;;;;18.26;100.00;102099.78;5250989;28;20047;-70
2023/10/09 07:54:15;;;;;;;30.85;13.65;;;;;;;18.25;100.00;102091.84;5248808;28;20381;-70
2023/10/09 07:56:45;;;;;;;26.88;12.85;;;;;;;18.20;100.00;102092.41;5250273;28;20107;-70
2023/10/09 07:59:18;;;;;;;28.65;12.80;;;;;;;18.18;100.00;102089.03;5253152;28;20240;-70
2023/10/09 08:01:59;;;;;;;39.38;13.77;;;;;;;18.20;100.00;102103.25;5251246;28;20098;-70
2023/10/09 08:04:47;;;;;;;36.15;13.13;;;;;;;18.18;100.00;102107.22;5255265;28;20473;-70
2023/10/09 08:07:19;;;;;;;26.08;14.13;;;;;;;18.10;100.00;102098.09;5250057;28;20032;-70
2023/10/09 08:11:19;;;;;;;32.42;13.57;;;;;;;17.98;100.00;102082.47;5249355;28;20020;-70
2023/10/09 08:17:54;;;;;;;29.80;13.88;;;;;;;17.91;100.00;102079.63;5254781;28;20386;-70
2023/10/09 08:20:27;;;;;;;32.20;14.68;;;;;;;17.98;100.00;102077.88;5249711;28;20024;-70
2023/10/09 08:22:57;;;;;;;28.23;13.43;;;;;;;18.21;100.00;102085.09;5249706;28;20051;-70
2023/10/09 08:25:28;;;;;;;30.92;13.98;;;;;;;18.33;100.00;102092.59;5249636;28;20027;-70
2023/10/09 08:31:02;;;;;;;78.93;15.50;;;;;;;18.55;100.00;102095.41;5251492;28;20024;-70
2023/10/09 08:36:09;;;;;;;28.75;13.15;;;;;;;18.87;100.00;102100.44;5245558;28;20016;-70
2023/10/09 08:38:41;;;;;;;28.35;13.48;;;;;;;19.12;100.00;102109.09;5249260;28;20081;-70
2023/10/09 08:41:16;;;;;;;33.63;13.98;;;;;;;19.46;100.00;102099.41;5254231;28;20093;-70
2023/10/09 08:43:51;;;;;;;;;;;;;;;19.82;100.00;102103.94;5255107;28;20020;-71
2023/10/09 08:46:26;;;;;;;27.63;12.45;;;;;;;19.85;100.00;102104.41;5249376;28;19908;-71
2023/10/09 08:48:58;;;;;;;40.92;14.18;;;;;;;19.91;100.00;102098.16;5249225;28;20020;-70
2023/10/09 08:51:29;;;;;;;24.67;12.05;;;;;;;19.88;100.00;102109.47;5252571;28;20012;-71
2023/10/09 08:53:59;;;;;;;37.47;12.75;;;;;;;19.88;100.00;102111.31;5250604;28;20028;-70
2023/10/09 08:56:30;;;;;;;22.58;11.52;;;;;;;19.84;100.00;102099.16;5250285;28;20077;-70
2023/10/09 08:59:02;;;;;;;45.90;12.82;;;;;;;19.90;100.00;102095.63;5251654;28;20027;-70
2023/10/09 09:01:34;;;;;;;29.13;12.32;;;;;;;19.88;100.00;102090.41;5245571;28;20032;-70
2023/10/09 09:04:05;;;;;;;34.05;12.63;;;;;;;20.08;100.00;102074.19;5250104;28;20028;-71
2023/10/09 09:06:38;;;;;;;25.90;11.68;;;;;;;20.36;100.00;102076.88;5251631;28;20024;-71
2023/10/09 09:09:15;;;;;;;40.22;10.82;;;;;;;20.77;100.00;102103.31;5253958;28;20389;-71
2023/10/09 09:11:52;;;;;;;31.00;11.82;;;;;;;21.08;100.00;102107.41;5250891;28;20048;-71
2023/10/09 09:14:37;;;;;;;76.00;13.38;;;;;;;21.17;100.00;102104.28;5253883;28;20405;-70
2023/10/09 09:17:11;;;;;;;31.58;11.35;;;;;;;21.36;100.00;102115.50;5244482;28;20048;-71
2023/10/09 09:19:42;;;;;;;55.25;12.73;;;;;;;21.42;100.00;102114.66;5250428;28;20082;-72
2023/10/09 09:22:13;;;;;;;25.70;11.48;;;;;;;21.40;100.00;102101.22;5247419;28;20020;-71
2023/10/09 09:25:02;;;;;;;22.40;10.98;;;;;;;21.42;100.00;102101.00;5246698;28;20428;-71
2023/10/09 09:27:53;;;;;;;50.22;12.88;;;;;;;21.50;100.00;102105.44;5240113;28;20016;-71
2023/10/09 09:30:31;;;;;;;22.48;11.27;;;;;;;21.41;100.00;102110.25;5248606;28;20053;-71
2023/10/09 09:33:26;;;;;;;39.38;12.55;;;;;;;21.47;100.00;102114.88;5253108;28;20020;-71
2023/10/09 09:35:58;;;;;;;39.47;11.83;;;;;;;21.51;100.00;102115.31;5249184;28;20073;-71
2023/10/09 09:38:49;;;;;;;22.48;9.80;;;;;;;21.86;100.00;102108.59;5247498;28;20066;-71
2023/10/09 09:41:24;;;;;;;24.10;10.45;;;;;;;21.90;100.00;102098.09;5248431;28;20090;-71
2023/10/09 09:43:56;;;;;;;21.25;9.45;;;;;;;22.14;100.00;102091.13;5249280;28;20489;-71
2023/10/09 09:46:34;;;;;;;24.52;11.02;;;;;;;22.13;100.00;102086.72;5248329;28;20025;-71
2023/10/09 09:49:12;;;;;;;28.63;9.50;;;;;;;22.06;100.00;102080.41;5246273;28;20024;-72
2023/10/09 09:51:46;;;;;;;18.73;10.57;;;;;;;21.66;100.00;102077.72;5252738;28;20032;-71
2023/10/09 09:54:16;;;;;;;26.98;10.77;;;;;;;21.66;100.00;102075.81;5251890;28;20135;-71
2023/10/09 09:56:52;;;;;;;22.35;9.85;;;;;;;21.54;100.00;102077.50;5252074;28;20027;-71
2023/10/09 09:59:35;;;;;;;22.40;10.13;;;;;;;21.45;100.00;102079.59;5248690;28;20016;-71
2023/10/09 10:02:10;;;;;;;21.33;10.05;;;;;;;21.29;100.00;102074.50;5242587;28;20023;-71
2023/10/09 10:04:44;;;;;;;18.52;9.32;;;;;;;21.28;100.00;102072.81;5249409;28;20020;-71
2023/10/09 10:07:16;;;;;;;23.45;10.05;;;;;;;21.31;100.00;102069.72;5247390;28;20016;-71
2023/10/09 10:09:48;;;;;;;21.10;8.77;;;;;;;21.42;100.00;102073.72;5247574;28;20024;-71
2023/10/09 10:13:03;;;;;;;24.17;10.18;;;;;;;21.37;100.00;102068.88;5246995;28;20024;-71
2023/10/09 10:16:00;;;;;;;20.30;9.30;;;;;;;21.28;100.00;102070.09;5247009;28;20021;-71
2023/10/09 10:18:35;;;;;;;20.50;9.32;;;;;;;21.31;100.00;102069.72;5248018;28;20056;-71
2023/10/09 10:21:17;;;;;;;20.25;9.20;;;;;;;21.47;100.00;102079.38;5251536;28;20038;-72
2023/10/09 10:23:48;;;;;;;21.52;9.68;;;;;;;21.52;100.00;102081.50;5242989;28;20432;-72
2023/10/09 10:26:25;;;;;;;23.17;10.00;;;;;;;21.51;100.00;102088.00;5247384;28;20299;-72
2023/10/09 10:29:22;;;;;;;21.13;10.02;;;;;;;21.58;100.00;102095.13;5249478;28;20081;-72
2023/10/09 10:31:55;;;;;;;21.30;9.35;;;;;;;21.65;100.00;102081.50;5249017;28;20099;-72
2023/10/09 10:34:25;;;;;;;19.92;9.32;;;;;;;21.63;100.00;102099.97;5246643;28;20111;-72
2023/10/09 10:37:06;;;;;;;22.23;9.75;;;;;;;21.86;100.00;102094.94;5249986;28;20104;-72
2023/10/09 10:39:50;;;;;;;19.83;9.05;;;;;;;21.95;100.00;102092.84;5235028;28;20082;-72
2023/10/09 10:42:35;;;;;;;21.45;10.23;;;;;;;21.89;100.00;102091.78;5247398;28;20016;-72
2023/10/09 10:45:34;;;;;;;24.45;9.15;;;;;;;21.79;100.00;102099.56;5250033;28;20617;-72
2023/10/09 10:47:58;;;;;;;24.23;9.63;;;;;;;21.83;100.00;102100.81;5245489;28;20040;-72
2023/10/09 10:53:14;;;;;;;16.42;8.57;;;;;;;21.88;100.00;102114.69;5249692;28;20028;-71
2023/10/09 10:55:56;;;;;;;19.50;9.70;;;;;;;21.89;100.00;102116.38;5245232;28;20100;-72
2023/10/09 10:58:47;;;;;;;24.20;10.38;;;;;;;21.71;100.00;102107.97;5245351;28;20028;-72
2023/10/09 11:01:18;;;;;;;28.27;10.43;;;;;;;21.76;100.00;102116.38;5247537;28;20027;-71
2023/10/09 11:03:55;;;;;;;21.23;9.55;;;;;;;21.90;100.00;102117.22;5244642;28;20418;-72
2023/10/09 11:06:35;;;;;;;22.35;9.85;;;;;;;22.03;100.00;102121.81;5244309;28;20032;-72
2023/10/09 11:09:10;;;;;;;24.63;10.73;;;;;;;21.98;100.00;102123.28;5243583;28;20097;-72
2023/10/09 11:11:46;;;;;;;19.85;10.65;;;;;;;22.05;100.00;102128.78;5246144;28;20095;-73
2023/10/09 11:14:23;;;;;;;28.23;11.07;;;;;;;22.06;100.00;102121.41;5244258;28;20062;-72
2023/10/09 11:16:57;;;;;;;19.77;9.75;;;;;;;22.10;100.00;102114.47;5245303;28;20036;-72
2023/10/09 11:19:31;;;;;;;20.83;9.77;;;;;;;22.15;100.00;102117.44;5242002;28;20107;-72
2023/10/09 11:24:36;;;;;;;23.15;10.77;;;;;;;22.16;100.00;102110.91;5243491;28;20029;-72
2023/10/09 11:27:18;;;;;;;25.58;10.88;;;;;;;22.21;100.00;102113.84;5248862;28;20043;-72
2023/10/09 11:32:23;;;;;;;26.67;10.60;;;;;;;22.53;100.00;102111.25;5243870;28;20044;-72
2023/10/09 11:35:11;;;;;;;27.73;10.85;;;;;;;22.53;100.00;102117.56;5246714;28;20032;-72
2023/10/09 11:37:42;;;;;;;23.35;10.23;;;;;;;22.55;100.00;102110.00;5240064;28;20024;-72
2023/10/09 11:40:33;;;;;;;21.25;10.43;;;;;;;22.40;100.00;102106.66;5248450;28;20023;-72
2023/10/09 11:43:04;;;;;;;21.80;10.63;;;;;;;22.45;100.00;102102.22;5241396;28;20502;-72
2023/10/09 11:45:37;;;;;;;23.20;11.60;;;;;;;22.41;100.00;102109.19;5244578;28;20047;-72
2023/10/09 11:48:33;;;;;;;21.48;11.07;;;;;;;22.47;100.00;102112.94;5230916;28;20028;-72
2023/10/09 11:53:54;;;;;;;26.38;11.77;;;;;;;22.58;100.00;102105.97;5246441;28;20016;-72
2023/10/09 11:56:27;;;;;;;24.50;10.95;;;;;;;22.64;100.00;102111.44;5247339;28;20025;-72
2023/10/09 11:59:01;;;;;;;23.33;10.48;;;;;;;22.70;100.00;102115.19;5249173;28;20095;-72
2023/10/09 12:01:37;;;;;;;25.98;10.55;;;;;;;22.85;100.00;102110.28;5246885;28;20059;-72
2023/10/09 12:04:09;;;;;;;21.85;11.57;;;;;;;22.83;100.00;102095.97;5251441;28;20030;-72
2023/10/09 12:06:42;;;;;;;25.52;10.82;;;;;;;22.83;100.00;102097.88;5246989;28;20025;-72
2023/10/09 12:09:24;;;;;;;22.50;10.85;;;;;;;22.85;100.00;102102.09;5250717;28;20022;-72
2023/10/09 12:11:54;;;;;;;22.50;10.70;;;;;;;22.92;100.00;102102.06;5246513;28;20734;-72
2023/10/09 12:14:26;;;;;;;24.83;11.52;;;;;;;22.89;100.00;102107.97;5245569;28;20086;-72
2023/10/09 12:16:56;;;;;;;24.98;12.38;;;;;;;22.80;100.00;102104.63;5248890;28;20039;-72
2023/10/09 12:19:28;;;;;;;26.08;11.75;;;;;;;22.69;100.00;102102.56;5246628;28;20461;-72
2023/10/09 12:22:00;;;;;;;26.85;12.70;;;;;;;22.59;100.00;102099.44;5251945;28;20396;-72
2023/10/09 12:24:32;;;;;;;24.48;10.65;;;;;;;22.66;100.00;102101.09;5247006;28;20362;-72
2023/10/09 12:27:09;;;;;;;21.65;12.20;;;;;;;22.72;100.00;102102.13;5250433;28;20028;-72
2023/10/09 12:29:44;;;;;;;24.67;11.45;;;;;;;22.76;100.00;102103.38;5240792;28;20478;-72
2023/10/09 12:32:19;;;;;;;26.52;12.32;;;;;;;22.77;100.00;102096.84;5249589;28;20025;-72
2023/10/09 12:34:50;;;;;;;33.67;12.93;;;;;;;22.82;100.00;102104.41;5250382;28;20367;-72
2023/10/09 12:37:20;;;;;;;26.83;11.75;;;;;;;22.82;100.00;102105.25;5248508;28;20016;-72
2023/10/09 12:39:55;;;;;;;27.38;13.68;;;;;;;22.81;100.00;102094.53;5252599;28;20027;-72
2023/10/09 12:42:28;;;;;;;35.97;14.70;;;;;;;22.70;100.00;102096.88;5251315;28;20016;-72
2023/10/09 12:45:00;;;;;;;32.13;13.73;;;;;;;22.72;100.00;102093.94;5255332;28;20024;-73
2023/10/09 12:47:32;;;;;;;28.90;13.25;;;;;;;22.66;100.00;102097.53;5251515;28;20040;-72
2023/10/09 12:50:10;;;;;;;25.65;14.02;;;;;;;22.61;100.00;102089.13;5254066;28;20028;-72
2023/10/09 12:52:40;;;;;;;30.45;14.55;;;;;;;22.55;100.00;102081.81;5251319;28;20021;-72
2023/10/09 12:55:19;;;;;;;32.65;15.07;;;;;;;22.55;100.00;102090.00;5254250;28;20016;-72
2023/10/09 12:57:51;;;;;;;26.88;13.70;;;;;;;22.57;100.00;102079.69;5250241;28;20074;-72
2023/10/09 13:00:25;;;;;;;31.80;14.50;;;;;;;22.49;100.00;102078.00;5250915;28;20028;-72
2023/10/09 13:02:56;;;;;;;29.50;15.13;;;;;;;22.47;100.00;102080.13;5254456;28;20043;-72
2023/10/09 13:05:27;;;;;;;28.17;14.73;;;;;;;22.45;100.00;102079.53;5250318;28;20024;-72
2023/10/09 13:07:57;;;;;;;32.58;14.88;;;;;;;22.49;100.00;102084.34;5254474;28;20024;-73
2023/10/09 13:10:31;;;;;;;28.10;14.20;;;;;;;22.46;100.00;102075.72;5248122;28;20043;-72
2023/10/09 13:13:06;;;;;;;26.50;15.00;;;;;;;22.43;100.00;102081.63;5251601;28;20020;-72
2023/10/09 13:15:42;;;;;;;28.95;15.57;;;;;;;22.47;100.00;102085.59;5247616;28;20032;-72
2023/10/09 13:18:14;;;;;;;31.30;15.52;;;;;;;22.38;100.00;102076.78;5252349;28;20025;-72
2023/10/09 13:20:45;;;;;;;31.15;14.75;;;;;;;22.42;100.00;102079.94;5253452;28;20024;-72
2023/10/09 13:23:17;;;;;;;36.65;17.23;;;;;;;22.41;100.00;102078.28;5248095;28;20515;-72
2023/10/09 13:25:47;;;;;;;31.65;16.45;;;;;;;22.54;100.00;102064.56;5251087;28;20417;-72
2023/10/09 13:28:20;;;;;;;36.17;16.52;;;;;;;22.64;100.00;102064.06;5250641;28;20106;-72
2023/10/09 13:30:51;;;;;;;35.47;16.13;;;;;;;22.63;100.00;102051.47;5252147;28;20264;-71
2023/10/09 13:33:21;;;;;;;31.48;16.42;;;;;;;22.71;100.00;102054.78;5252842;28;20370;-72
2023/10/09 13:35:52;;;;;;;36.28;17.40;;;;;;;22.80;100.00;102058.13;5251349;28;20025;-72
2023/10/09 13:38:22;;;;;;;38.22;16.90;;;;;;;22.72;100.00;102058.38;5250338;28;20213;-72
2023/10/09 13:41:01;;;;;;;32.88;16.10;;;;;;;22.72;100.00;102051.00;5249976;28;20025;-72
2023/10/09 13:43:31;;;;;;;34.85;16.63;;;;;;;22.52;100.00;102052.16;5251458;28;20389;-72
2023/10/09 13:46:03;;;;;;;40.70;17.40;;;;;;;22.51;100.00;102062.25;5254373;28;20024;-71
2023/10/09 13:48:38;;;;;;;36.10;16.60;;;;;;;22.52;100.00;102057.63;5249803;28;20481;-72
2023/10/09 13:51:13;;;;;;;38.72;16.92;;;;;;;22.48;100.00;102060.78;5249849;28;20031;-72
2023/10/09 13:53:45;;;;;;;39.97;17.30;;;;;;;22.39;100.00;102056.63;5251220;28;20017;-72
2023/10/09 13:56:18;;;;;;;33.22;16.65;;;;;;;22.37;100.00;102066.91;5249044;28;20028;-72
2023/10/09 13:58:51;;;;;;;37.20;18.38;;;;;;;22.38;100.00;102071.31;5249595;28;20021;-72
2023/10/09 14:01:27;;;;;;;38.30;17.25;;;;;;;22.30;100.00;102082.50;5250335;28;20031;-72
2023/10/09 14:04:00;;;;;;;32.55;17.63;;;;;;;22.27;100.00;102082.09;5249306;28;20482;-72
2023/10/09 14:06:30;;;;;;;33.70;16.65;;;;;;;22.22;100.00;102080.00;5246909;28;20519;-72
2023/10/09 14:09:04;;;;;;;37.65;17.58;;;;;;;22.12;100.00;102079.59;5252783;28;20020;-72